sensor_id;sensor_type;location;lat;lon;timestamp;temperature;humidity
49441;DHT22;35317;51.978;6.296;2023-02-23T00:03:15;10.00;99.90
49441;DHT22;35317;51.978;6.296;2023-02-23T00:08:16;10.00;99.90
49441;DHT22;35317;51.978;6.296;2023-02-23T00:13:16;10.00;99.90
49441;DHT22;35317;51.978;6.296;2023-02-23T00:18:17;9.90;99.90
49441;DHT22;35317;51.978;6.296;2023-02-23T00:23:20;9.90;99.90
49441;DHT22;35317;51.978;6.296;2023-02-23T00:28:20;9.80;99.90
49441;DHT22;35317;51.978;6.296;2023-02-23T00:33:21;9.80;99.90
49441;DHT22;35317;51.978;6.296;2023-02-23T00:38:22;9.70;99.90
49441;DHT22;35317;51.978;6.296;2023-02-23T00:43:23;9.60;99.90
49441;DHT22;35317;51.978;6.296;2023-02-23T00:48:24;9.50;99.90
49441;DHT22;35317;51.978;6.296;2023-02-23T00:53:25;9.50;99.90
49441;DHT22;35317;51.978;6.296;2023-02-23T00:58:26;9.40;99.90
49441;DHT22;35317;51.978;6.296;2023-02-23T01:03:30;9.40;99.90
49441;DHT22;35317;51.978;6.296;2023-02-23T01:08:32;9.30;99.90
49441;DHT22;35317;51.978;6.296;2023-02-23T01:13:34;9.30;99.90
49441;DHT22;35317;51.978;6.296;2023-02-23T01:18:36;9.30;99.90
49441;DHT22;35317;51.978;6.296;2023-02-23T01:23:38;9.30;99.90
49441;DHT22;35317;51.978;6.296;2023-02-23T01:28:39;9.20;99.90
49441;DHT22;35317;51.978;6.296;2023-02-23T01:33:39;9.20;99.90
49441;DHT22;35317;51.978;6.296;2023-02-23T01:38:40;9.20;99.90
49441;DHT22;35317;51.978;6.296;2023-02-23T01:49:23;9.00;99.90
49441;DHT22;35317;51.978;6.296;2023-02-23T01:54:52;9.00;99.90
49441;DHT22;35317;51.978;6.296;2023-02-23T01:59:54;8.90;99.90
49441;DHT22;35317;51.978;6.296;2023-02-23T02:04:55;8.90;99.90
49441;DHT22;35317;51.978;6.296;2023-02-23T02:09:57;8.90;99.90
49441;DHT22;35317;51.978;6.296;2023-02-23T02:15:11;8.90;99.90
49441;DHT22;35317;51.978;6.296;2023-02-23T02:26:37;8.90;99.90
49441;DHT22;35317;51.978;6.296;2023-02-23T02:43:16;9.00;99.90
49441;DHT22;35317;51.978;6.296;2023-02-23T02:54:24;9.00;99.90
49441;DHT22;35317;51.978;6.296;2023-02-23T02:59:30;9.10;99.90
49441;DHT22;35317;51.978;6.296;2023-02-23T03:04:50;9.00;99.90
49441;DHT22;35317;51.978;6.296;2023-02-23T03:10:17;9.10;99.90
49441;DHT22;35317;51.978;6.296;2023-02-23T03:22:17;9.10;99.90
49441;DHT22;35317;51.978;6.296;2023-02-23T03:28:10;9.10;99.90
49441;DHT22;35317;51.978;6.296;2023-02-23T03:33:50;9.10;99.90
49441;DHT22;35317;51.978;6.296;2023-02-23T03:39:25;9.10;99.90
49441;DHT22;35317;51.978;6.296;2023-02-23T03:44:49;9.10;99.90
49441;DHT22;35317;51.978;6.296;2023-02-23T03:50:16;9.10;99.90
49441;DHT22;35317;51.978;6.296;2023-02-23T03:55:45;9.10;99.90
49441;DHT22;35317;51.978;6.296;2023-02-23T04:01:09;9.10;99.90
49441;DHT22;35317;51.978;6.296;2023-02-23T04:06:34;9.10;99.90
49441;DHT22;35317;51.978;6.296;2023-02-23T04:17:52;9.10;99.90
49441;DHT22;35317;51.978;6.296;2023-02-23T04:22:53;9.10;99.90
49441;DHT22;35317;51.978;6.296;2023-02-23T04:27:53;9.10;99.90
49441;DHT22;35317;51.978;6.296;2023-02-23T04:32:55;9.10;99.90
49441;DHT22;35317;51.978;6.296;2023-02-23T04:37:56;9.10;99.90
49441;DHT22;35317;51.978;6.296;2023-02-23T04:42:57;9.10;99.90
49441;DHT22;35317;51.978;6.296;2023-02-23T04:47:58;9.00;99.90
49441;DHT22;35317;51.978;6.296;2023-02-23T04:52:59;9.00;99.90
49441;DHT22;35317;51.978;6.296;2023-02-23T04:58:01;9.00;99.90
49441;DHT22;35317;51.978;6.296;2023-02-23T05:03:01;9.00;99.90
49441;DHT22;35317;51.978;6.296;2023-02-23T05:08:03;9.00;99.90
49441;DHT22;35317;51.978;6.296;2023-02-23T05:13:04;9.00;99.90
49441;DHT22;35317;51.978;6.296;2023-02-23T05:18:05;9.00;99.90
49441;DHT22;35317;51.978;6.296;2023-02-23T05:23:07;9.00;99.90
49441;DHT22;35317;51.978;6.296;2023-02-23T05:28:08;9.00;99.90
49441;DHT22;35317;51.978;6.296;2023-02-23T05:33:08;9.00;99.90
49441;DHT22;35317;51.978;6.296;2023-02-23T05:38:09;9.00;99.90
49441;DHT22;35317;51.978;6.296;2023-02-23T05:43:10;8.90;99.90
49441;DHT22;35317;51.978;6.296;2023-02-23T05:48:11;8.90;99.90
49441;DHT22;35317;51.978;6.296;2023-02-23T05:53:12;8.90;99.90
49441;DHT22;35317;51.978;6.296;2023-02-23T05:58:13;8.90;99.90
49441;DHT22;35317;51.978;6.296;2023-02-23T06:03:14;8.90;99.90
49441;DHT22;35317;51.978;6.296;2023-02-23T06:08:15;8.90;99.90
49441;DHT22;35317;51.978;6.296;2023-02-23T06:13:16;8.90;99.90
49441;DHT22;35317;51.978;6.296;2023-02-23T06:18:17;8.90;99.90
49441;DHT22;35317;51.978;6.296;2023-02-23T06:23:18;8.90;99.90
49441;DHT22;35317;51.978;6.296;2023-02-23T06:28:19;8.90;99.90
49441;DHT22;35317;51.978;6.296;2023-02-23T06:33:20;8.90;99.90
49441;DHT22;35317;51.978;6.296;2023-02-23T06:38:21;8.90;99.90
49441;DHT22;35317;51.978;6.296;2023-02-23T06:43:23;8.80;99.90
49441;DHT22;35317;51.978;6.296;2023-02-23T06:48:23;8.80;99.90
49441;DHT22;35317;51.978;6.296;2023-02-23T06:53:24;8.70;99.90
49441;DHT22;35317;51.978;6.296;2023-02-23T06:58:25;8.70;99.90
49441;DHT22;35317;51.978;6.296;2023-02-23T07:03:26;8.70;99.90
49441;DHT22;35317;51.978;6.296;2023-02-23T07:08:27;8.70;99.90
49441;DHT22;35317;51.978;6.296;2023-02-23T07:13:27;8.70;99.90
49441;DHT22;35317;51.978;6.296;2023-02-23T07:18:28;8.70;99.90
49441;DHT22;35317;51.978;6.296;2023-02-23T07:23:29;8.70;99.90
49441;DHT22;35317;51.978;6.296;2023-02-23T07:28:32;8.70;99.90
49441;DHT22;35317;51.978;6.296;2023-02-23T07:33:33;8.70;99.90
49441;DHT22;35317;51.978;6.296;2023-02-23T07:38:35;8.70;99.90
49441;DHT22;35317;51.978;6.296;2023-02-23T07:43:36;8.70;99.90
49441;DHT22;35317;51.978;6.296;2023-02-23T07:48:36;8.70;99.90
49441;DHT22;35317;51.978;6.296;2023-02-23T07:53:38;8.70;99.90
49441;DHT22;35317;51.978;6.296;2023-02-23T07:58:41;8.80;99.90
49441;DHT22;35317;51.978;6.296;2023-02-23T08:03:43;8.80;99.90
49441;DHT22;35317;51.978;6.296;2023-02-23T08:08:48;8.80;99.90
49441;DHT22;35317;51.978;6.296;2023-02-23T08:13:49;8.90;99.90
49441;DHT22;35317;51.978;6.296;2023-02-23T08:18:50;8.90;99.90
49441;DHT22;35317;51.978;6.296;2023-02-23T08:23:51;8.90;99.90
49441;DHT22;35317;51.978;6.296;2023-02-23T08:28:52;8.90;99.90
49441;DHT22;35317;51.978;6.296;2023-02-23T08:33:54;9.00;99.90
49441;DHT22;35317;51.978;6.296;2023-02-23T08:38:56;9.00;99.90
49441;DHT22;35317;51.978;6.296;2023-02-23T08:43:57;9.00;99.90
49441;DHT22;35317;51.978;6.296;2023-02-23T08:48:58;9.00;99.90
49441;DHT22;35317;51.978;6.296;2023-02-23T08:54:00;9.00;99.90
49441;DHT22;35317;51.978;6.296;2023-02-23T08:59:01;9.10;99.90
49441;DHT22;35317;51.978;6.296;2023-02-23T09:04:02;9.10;99.90
49441;DHT22;35317;51.978;6.296;2023-02-23T09:09:04;9.20;99.90
49441;DHT22;35317;51.978;6.296;2023-02-23T09:19:32;9.30;99.90
49441;DHT22;35317;51.978;6.296;2023-02-23T09:24:32;9.30;99.90
49441;DHT22;35317;51.978;6.296;2023-02-23T09:29:34;9.30;99.90
49441;DHT22;35317;51.978;6.296;2023-02-23T09:34:57;9.40;99.90
49441;DHT22;35317;51.978;6.296;2023-02-23T09:39:57;9.40;99.90
49441;DHT22;35317;51.978;6.296;2023-02-23T09:45:03;9.50;99.90
49441;DHT22;35317;51.978;6.296;2023-02-23T09:50:21;9.60;99.90
49441;DHT22;35317;51.978;6.296;2023-02-23T09:55:24;9.70;99.90
49441;DHT22;35317;51.978;6.296;2023-02-23T10:00:26;9.80;99.90
49441;DHT22;35317;51.978;6.296;2023-02-23T10:05:29;9.80;99.90
49441;DHT22;35317;51.978;6.296;2023-02-23T10:10:45;9.80;99.90
49441;DHT22;35317;51.978;6.296;2023-02-23T10:16:14;10.00;99.90
49441;DHT22;35317;51.978;6.296;2023-02-23T10:21:42;10.10;99.90
49441;DHT22;35317;51.978;6.296;2023-02-23T10:26:59;10.20;99.90
49441;DHT22;35317;51.978;6.296;2023-02-23T10:32:17;10.30;99.90
49441;DHT22;35317;51.978;6.296;2023-02-23T10:37:23;10.30;99.90
49441;DHT22;35317;51.978;6.296;2023-02-23T10:42:26;10.20;99.90
49441;DHT22;35317;51.978;6.296;2023-02-23T10:47:33;10.20;99.90
49441;DHT22;35317;51.978;6.296;2023-02-23T10:52:45;10.10;99.90
49441;DHT22;35317;51.978;6.296;2023-02-23T10:57:49;10.10;99.90
49441;DHT22;35317;51.978;6.296;2023-02-23T11:02:54;10.20;99.90
49441;DHT22;35317;51.978;6.296;2023-02-23T11:08:17;10.30;99.90
49441;DHT22;35317;51.978;6.296;2023-02-23T11:13:23;10.30;99.90
49441;DHT22;35317;51.978;6.296;2023-02-23T11:18:25;10.20;99.90
49441;DHT22;35317;51.978;6.296;2023-02-23T11:23:30;10.20;99.90
49441;DHT22;35317;51.978;6.296;2023-02-23T11:28:40;10.30;99.90
49441;DHT22;35317;51.978;6.296;2023-02-23T11:33:42;10.30;99.90
49441;DHT22;35317;51.978;6.296;2023-02-23T11:38:45;10.40;99.90
49441;DHT22;35317;51.978;6.296;2023-02-23T11:43:51;10.50;99.90
49441;DHT22;35317;51.978;6.296;2023-02-23T11:49:07;10.70;99.90
49441;DHT22;35317;51.978;6.296;2023-02-23T11:54:29;10.80;99.90
49441;DHT22;35317;51.978;6.296;2023-02-23T11:59:36;10.80;99.90
49441;DHT22;35317;51.978;6.296;2023-02-23T12:04:39;10.80;99.90
49441;DHT22;35317;51.978;6.296;2023-02-23T12:09:41;10.80;99.90
49441;DHT22;35317;51.978;6.296;2023-02-23T12:31:21;10.60;99.90
49441;DHT22;35317;51.978;6.296;2023-02-23T12:36:32;10.60;99.90
49441;DHT22;35317;51.978;6.296;2023-02-23T12:41:54;10.50;99.90
49441;DHT22;35317;51.978;6.296;2023-02-23T12:47:03;10.50;99.90
49441;DHT22;35317;51.978;6.296;2023-02-23T12:52:27;10.50;99.90
49441;DHT22;35317;51.978;6.296;2023-02-23T12:57:57;10.50;99.90
49441;DHT22;35317;51.978;6.296;2023-02-23T13:04:08;10.50;99.90
49441;DHT22;35317;51.978;6.296;2023-02-23T13:09:20;10.40;99.90
49441;DHT22;35317;51.978;6.296;2023-02-23T13:14:35;10.50;99.90
49441;DHT22;35317;51.978;6.296;2023-02-23T13:20:14;10.50;99.90
49441;DHT22;35317;51.978;6.296;2023-02-23T13:30:28;10.40;99.90
49441;DHT22;35317;51.978;6.296;2023-02-23T13:35:34;10.20;99.90
49441;DHT22;35317;51.978;6.296;2023-02-23T13:40:47;10.20;99.90
49441;DHT22;35317;51.978;6.296;2023-02-23T13:46:24;10.00;99.90
49441;DHT22;35317;51.978;6.296;2023-02-23T13:51:42;9.90;99.90
49441;DHT22;35317;51.978;6.296;2023-02-23T13:56:49;9.90;99.90
49441;DHT22;35317;51.978;6.296;2023-02-23T14:01:57;9.90;99.90
49441;DHT22;35317;51.978;6.296;2023-02-23T14:08:15;9.90;99.90
49441;DHT22;35317;51.978;6.296;2023-02-23T14:13:29;10.00;99.90
49441;DHT22;35317;51.978;6.296;2023-02-23T14:24:15;10.10;99.90
49441;DHT22;35317;51.978;6.296;2023-02-23T14:29:27;10.10;99.90
49441;DHT22;35317;51.978;6.296;2023-02-23T14:34:53;10.10;99.90
49441;DHT22;35317;51.978;6.296;2023-02-23T14:40:13;10.10;99.90
49441;DHT22;35317;51.978;6.296;2023-02-23T14:45:22;10.10;99.90
49441;DHT22;35317;51.978;6.296;2023-02-23T14:50:32;10.20;99.90
49441;DHT22;35317;51.978;6.296;2023-02-23T14:55:34;10.20;99.90
49441;DHT22;35317;51.978;6.296;2023-02-23T15:00:42;10.20;99.90
49441;DHT22;35317;51.978;6.296;2023-02-23T15:05:55;10.10;99.90
49441;DHT22;35317;51.978;6.296;2023-02-23T15:11:23;10.00;99.90
49441;DHT22;35317;51.978;6.296;2023-02-23T15:16:30;10.00;99.90
49441;DHT22;35317;51.978;6.296;2023-02-23T15:21:35;10.10;99.90
49441;DHT22;35317;51.978;6.296;2023-02-23T15:26:39;10.10;99.90
49441;DHT22;35317;51.978;6.296;2023-02-23T15:31:55;10.10;99.90
49441;DHT22;35317;51.978;6.296;2023-02-23T15:37:02;10.00;99.90
49441;DHT22;35317;51.978;6.296;2023-02-23T15:42:12;9.90;99.90
49441;DHT22;35317;51.978;6.296;2023-02-23T15:47:25;9.90;99.90
49441;DHT22;35317;51.978;6.296;2023-02-23T15:52:31;9.90;99.90
49441;DHT22;35317;51.978;6.296;2023-02-23T15:57:51;9.90;99.90
49441;DHT22;35317;51.978;6.296;2023-02-23T16:02:55;9.90;99.90
49441;DHT22;35317;51.978;6.296;2023-02-23T16:08:23;9.90;99.90
49441;DHT22;35317;51.978;6.296;2023-02-23T16:13:25;9.80;99.90
49441;DHT22;35317;51.978;6.296;2023-02-23T16:18:49;9.80;99.90
49441;DHT22;35317;51.978;6.296;2023-02-23T16:23:53;9.80;99.90
49441;DHT22;35317;51.978;6.296;2023-02-23T16:28:59;9.70;99.90
49441;DHT22;35317;51.978;6.296;2023-02-23T16:34:01;9.70;99.90
49441;DHT22;35317;51.978;6.296;2023-02-23T16:39:08;9.60;99.90
49441;DHT22;35317;51.978;6.296;2023-02-23T16:44:13;9.60;99.90
49441;DHT22;35317;51.978;6.296;2023-02-23T16:49:19;9.60;99.90
49441;DHT22;35317;51.978;6.296;2023-02-23T16:54:22;9.50;99.90
49441;DHT22;35317;51.978;6.296;2023-02-23T16:59:23;9.50;99.90
49441;DHT22;35317;51.978;6.296;2023-02-23T17:04:24;9.50;99.90
49441;DHT22;35317;51.978;6.296;2023-02-23T17:09:25;9.40;99.90
49441;DHT22;35317;51.978;6.296;2023-02-23T17:14:26;9.40;99.90
49441;DHT22;35317;51.978;6.296;2023-02-23T17:19:27;9.30;99.90
49441;DHT22;35317;51.978;6.296;2023-02-23T17:24:28;9.30;99.90
49441;DHT22;35317;51.978;6.296;2023-02-23T17:29:29;9.30;99.90
49441;DHT22;35317;51.978;6.296;2023-02-23T17:34:30;9.30;99.90
49441;DHT22;35317;51.978;6.296;2023-02-23T17:39:30;9.30;99.90
49441;DHT22;35317;51.978;6.296;2023-02-23T17:44:31;9.20;99.90
49441;DHT22;35317;51.978;6.296;2023-02-23T17:49:32;9.10;99.90
49441;DHT22;35317;51.978;6.296;2023-02-23T17:54:33;9.00;99.90
49441;DHT22;35317;51.978;6.296;2023-02-23T17:59:33;8.90;99.90
49441;DHT22;35317;51.978;6.296;2023-02-23T18:04:34;8.80;99.90
49441;DHT22;35317;51.978;6.296;2023-02-23T18:09:36;8.70;99.90
49441;DHT22;35317;51.978;6.296;2023-02-23T18:14:36;8.60;99.90
49441;DHT22;35317;51.978;6.296;2023-02-23T18:19:37;8.50;99.90
49441;DHT22;35317;51.978;6.296;2023-02-23T18:24:38;8.40;99.90
49441;DHT22;35317;51.978;6.296;2023-02-23T18:29:40;8.40;99.90
49441;DHT22;35317;51.978;6.296;2023-02-23T18:34:41;8.30;99.90
49441;DHT22;35317;51.978;6.296;2023-02-23T18:39:42;8.30;99.90
49441;DHT22;35317;51.978;6.296;2023-02-23T18:44:43;8.30;99.90
49441;DHT22;35317;51.978;6.296;2023-02-23T18:49:44;8.10;99.90
49441;DHT22;35317;51.978;6.296;2023-02-23T18:54:44;8.00;99.90
49441;DHT22;35317;51.978;6.296;2023-02-23T18:59:45;7.80;99.90
49441;DHT22;35317;51.978;6.296;2023-02-23T19:04:46;7.70;99.90
49441;DHT22;35317;51.978;6.296;2023-02-23T19:09:47;7.60;99.90
49441;DHT22;35317;51.978;6.296;2023-02-23T19:14:49;7.60;99.90
49441;DHT22;35317;51.978;6.296;2023-02-23T19:19:51;7.50;99.90
49441;DHT22;35317;51.978;6.296;2023-02-23T19:24:55;7.40;99.90
49441;DHT22;35317;51.978;6.296;2023-02-23T19:29:56;7.30;99.90
49441;DHT22;35317;51.978;6.296;2023-02-23T19:34:56;7.30;99.90
49441;DHT22;35317;51.978;6.296;2023-02-23T19:39:57;7.20;99.90
49441;DHT22;35317;51.978;6.296;2023-02-23T19:44:58;7.10;99.90
49441;DHT22;35317;51.978;6.296;2023-02-23T19:49:59;7.10;99.90
49441;DHT22;35317;51.978;6.296;2023-02-23T19:55:00;6.90;99.90
49441;DHT22;35317;51.978;6.296;2023-02-23T20:00:02;6.80;99.90
49441;DHT22;35317;51.978;6.296;2023-02-23T20:05:04;6.70;99.90
49441;DHT22;35317;51.978;6.296;2023-02-23T20:10:06;6.60;99.90
49441;DHT22;35317;51.978;6.296;2023-02-23T20:15:09;6.40;99.90
49441;DHT22;35317;51.978;6.296;2023-02-23T20:20:10;6.20;99.90
49441;DHT22;35317;51.978;6.296;2023-02-23T20:25:12;6.10;99.90
49441;DHT22;35317;51.978;6.296;2023-02-23T20:30:16;5.90;99.90
49441;DHT22;35317;51.978;6.296;2023-02-23T20:35:18;5.80;99.90
49441;DHT22;35317;51.978;6.296;2023-02-23T20:40:19;5.60;99.90
49441;DHT22;35317;51.978;6.296;2023-02-23T20:45:23;5.50;99.90
49441;DHT22;35317;51.978;6.296;2023-02-23T20:50:25;5.40;99.90
49441;DHT22;35317;51.978;6.296;2023-02-23T20:55:29;5.30;99.90
49441;DHT22;35317;51.978;6.296;2023-02-23T21:00:30;5.20;99.90
49441;DHT22;35317;51.978;6.296;2023-02-23T21:05:36;5.10;99.90
49441;DHT22;35317;51.978;6.296;2023-02-23T21:10:40;5.00;99.90
49441;DHT22;35317;51.978;6.296;2023-02-23T21:15:41;4.90;99.90
49441;DHT22;35317;51.978;6.296;2023-02-23T21:20:43;4.80;99.90
49441;DHT22;35317;51.978;6.296;2023-02-23T21:25:44;4.70;99.90
49441;DHT22;35317;51.978;6.296;2023-02-23T21:30:45;4.60;99.90
49441;DHT22;35317;51.978;6.296;2023-02-23T21:35:45;4.50;99.90
49441;DHT22;35317;51.978;6.296;2023-02-23T21:40:46;4.40;99.90
49441;DHT22;35317;51.978;6.296;2023-02-23T21:45:47;4.30;99.90
49441;DHT22;35317;51.978;6.296;2023-02-23T21:50:48;4.30;99.90
49441;DHT22;35317;51.978;6.296;2023-02-23T21:55:49;4.20;99.90
49441;DHT22;35317;51.978;6.296;2023-02-23T22:00:50;4.10;99.90
49441;DHT22;35317;51.978;6.296;2023-02-23T22:05:50;4.00;99.90
49441;DHT22;35317;51.978;6.296;2023-02-23T22:10:51;3.90;99.90
49441;DHT22;35317;51.978;6.296;2023-02-23T22:15:57;3.90;99.90
49441;DHT22;35317;51.978;6.296;2023-02-23T22:20:59;3.90;99.90
49441;DHT22;35317;51.978;6.296;2023-02-23T22:26:01;3.90;99.90
49441;DHT22;35317;51.978;6.296;2023-02-23T22:31:06;3.90;99.90
49441;DHT22;35317;51.978;6.296;2023-02-23T22:36:11;3.90;99.90
49441;DHT22;35317;51.978;6.296;2023-02-23T22:41:13;3.90;99.90
49441;DHT22;35317;51.978;6.296;2023-02-23T22:46:14;3.80;99.90
49441;DHT22;35317;51.978;6.296;2023-02-23T22:51:16;3.80;99.90
49441;DHT22;35317;51.978;6.296;2023-02-23T22:56:18;3.80;99.90
49441;DHT22;35317;51.978;6.296;2023-02-23T23:01:19;3.70;99.90
49441;DHT22;35317;51.978;6.296;2023-02-23T23:06:21;3.70;99.90
49441;DHT22;35317;51.978;6.296;2023-02-23T23:11:24;3.60;99.90
49441;DHT22;35317;51.978;6.296;2023-02-23T23:16:27;3.50;99.90
49441;DHT22;35317;51.978;6.296;2023-02-23T23:21:34;3.40;99.90
49441;DHT22;35317;51.978;6.296;2023-02-23T23:26:36;3.30;99.90
49441;DHT22;35317;51.978;6.296;2023-02-23T23:31:41;3.20;99.90
49441;DHT22;35317;51.978;6.296;2023-02-23T23:36:44;3.10;99.90
49441;DHT22;35317;51.978;6.296;2023-02-23T23:41:47;3.00;99.90
49441;DHT22;35317;51.978;6.296;2023-02-23T23:46:48;3.00;99.90
49441;DHT22;35317;51.978;6.296;2023-02-23T23:51:53;2.90;99.90
49441;DHT22;35317;51.978;6.296;2023-02-23T23:56:59;2.80;99.90
